sensor_id;sensor_type;location;lat;lon;timestamp;pressure;altitude;pressure_sealevel;temperature;humidity
36932;BME280;22847;42.654;23.370;2023-07-13T00:02:05;94894.31;;;26.08;nan
36932;BME280;22847;42.654;23.370;2023-07-13T00:04:31;94890.59;;;26.09;nan
36932;BME280;22847;42.654;23.370;2023-07-13T00:06:56;94914.16;;;26.12;nan
36932;BME280;22847;42.654;23.370;2023-07-13T00:09:22;94912.91;;;26.03;nan
36932;BME280;22847;42.654;23.370;2023-07-13T00:11:53;94809.41;;;25.41;nan
36932;BME280;22847;42.654;23.370;2023-07-13T00:14:19;94897.94;;;26.02;nan
36932;BME280;22847;42.654;23.370;2023-07-13T00:16:45;94790.59;;;25.36;nan
36932;BME280;22847;42.654;23.370;2023-07-13T00:19:12;94924.19;;;26.05;nan
36932;BME280;22847;42.654;23.370;2023-07-13T00:21:39;94789.94;;;25.28;nan
36932;BME280;22847;42.654;23.370;2023-07-13T00:24:05;94905.25;;;25.95;nan
36932;BME280;22847;42.654;23.370;2023-07-13T00:26:31;94900.59;;;25.91;nan
36932;BME280;22847;42.654;23.370;2023-07-13T00:28:58;94889.13;;;25.79;nan
36932;BME280;22847;42.654;23.370;2023-07-13T00:31:23;94927.56;;;25.77;nan
36932;BME280;22847;42.654;23.370;2023-07-13T00:33:49;94901.88;;;25.65;nan
36932;BME280;22847;42.654;23.370;2023-07-13T00:36:14;94803.94;;;25.01;nan
36932;BME280;22847;42.654;23.370;2023-07-13T00:38:40;94888.72;;;25.52;nan
36932;BME280;22847;42.654;23.370;2023-07-13T00:41:06;94898.38;;;25.53;nan
36932;BME280;22847;42.654;23.370;2023-07-13T00:43:31;94693.22;;;24.15;nan
36932;BME280;22847;42.654;23.370;2023-07-13T00:46:20;94900.31;;;25.34;nan
36932;BME280;22847;42.654;23.370;2023-07-13T00:48:48;94897.41;;;25.24;nan
36932;BME280;22847;42.654;23.370;2023-07-13T00:51:16;94888.03;;;24.92;nan
36932;BME280;22847;42.654;23.370;2023-07-13T00:53:43;94896.97;;;24.67;nan
36932;BME280;22847;42.654;23.370;2023-07-13T00:56:08;94894.94;;;25.11;nan
36932;BME280;22847;42.654;23.370;2023-07-13T00:58:35;94773.25;;;24.09;nan
36932;BME280;22847;42.654;23.370;2023-07-13T01:01:00;94769.75;;;24.26;nan
36932;BME280;22847;42.654;23.370;2023-07-13T01:03:26;94825.31;;;24.71;nan
36932;BME280;22847;42.654;23.370;2023-07-13T01:05:51;94767.34;;;24.36;nan
36932;BME280;22847;42.654;23.370;2023-07-13T01:08:19;94890.06;;;25.19;nan
36932;BME280;22847;42.654;23.370;2023-07-13T01:10:55;94885.97;;;25.05;nan
36932;BME280;22847;42.654;23.370;2023-07-13T01:13:21;94882.53;;;25.16;nan
36932;BME280;22847;42.654;23.370;2023-07-13T01:15:49;94786.31;;;24.58;nan
36932;BME280;22847;42.654;23.370;2023-07-13T01:18:22;94897.47;;;25.17;nan
36932;BME280;22847;42.654;23.370;2023-07-13T01:20:59;94881.38;;;25.12;nan
36932;BME280;22847;42.654;23.370;2023-07-13T01:23:26;94883.44;;;25.10;nan
36932;BME280;22847;42.654;23.370;2023-07-13T01:25:53;94882.75;;;25.03;nan
36932;BME280;22847;42.654;23.370;2023-07-13T01:28:20;94740.91;;;24.05;nan
36932;BME280;22847;42.654;23.370;2023-07-13T01:30:46;94886.69;;;24.53;nan
36932;BME280;22847;42.654;23.370;2023-07-13T01:33:14;94765.03;;;23.37;nan
36932;BME280;22847;42.654;23.370;2023-07-13T01:35:41;94883.03;;;24.35;nan
36932;BME280;22847;42.654;23.370;2023-07-13T01:38:08;94907.22;;;24.34;nan
36932;BME280;22847;42.654;23.370;2023-07-13T01:40:35;94892.53;;;24.07;nan
36932;BME280;22847;42.654;23.370;2023-07-13T01:43:00;94906.31;;;23.85;nan
36932;BME280;22847;42.654;23.370;2023-07-13T01:45:26;94763.44;;;23.36;nan
36932;BME280;22847;42.654;23.370;2023-07-13T01:47:51;94604.75;;;22.44;nan
36932;BME280;22847;42.654;23.370;2023-07-13T01:50:17;94816.72;;;23.73;nan
36932;BME280;22847;42.654;23.370;2023-07-13T01:52:42;94874.38;;;24.22;nan
36932;BME280;22847;42.654;23.370;2023-07-13T01:55:08;94876.88;;;24.17;nan
36932;BME280;22847;42.654;23.370;2023-07-13T01:57:34;94892.50;;;24.31;nan
36932;BME280;22847;42.654;23.370;2023-07-13T02:00:01;94881.25;;;24.29;nan
36932;BME280;22847;42.654;23.370;2023-07-13T02:02:26;94856.41;;;23.74;nan
36932;BME280;22847;42.654;23.370;2023-07-13T02:04:52;94891.72;;;24.06;nan
36932;BME280;22847;42.654;23.370;2023-07-13T02:07:17;94763.25;;;23.13;nan
36932;BME280;22847;42.654;23.370;2023-07-13T02:09:42;94792.53;;;23.31;nan
36932;BME280;22847;42.654;23.370;2023-07-13T02:12:08;94777.44;;;23.25;nan
36932;BME280;22847;42.654;23.370;2023-07-13T02:14:34;94842.44;;;23.79;nan
36932;BME280;22847;42.654;23.370;2023-07-13T02:16:59;94836.94;;;23.55;nan
36932;BME280;22847;42.654;23.370;2023-07-13T02:19:24;94758.25;;;22.98;nan
36932;BME280;22847;42.654;23.370;2023-07-13T02:21:50;94884.03;;;23.55;nan
36932;BME280;22847;42.654;23.370;2023-07-13T02:24:15;94793.63;;;23.24;nan
36932;BME280;22847;42.654;23.370;2023-07-13T02:26:43;94890.84;;;23.94;nan
36932;BME280;22847;42.654;23.370;2023-07-13T02:29:09;94786.31;;;23.37;nan
36932;BME280;22847;42.654;23.370;2023-07-13T02:31:35;94764.91;;;23.32;nan
36932;BME280;22847;42.654;23.370;2023-07-13T02:34:01;94908.88;;;24.17;nan
36932;BME280;22847;42.654;23.370;2023-07-13T02:36:26;94804.59;;;23.59;nan
36932;BME280;22847;42.654;23.370;2023-07-13T02:38:52;94905.91;;;24.25;nan
36932;BME280;22847;42.654;23.370;2023-07-13T02:41:17;94922.34;;;23.79;nan
36932;BME280;22847;42.654;23.370;2023-07-13T02:43:43;94901.47;;;23.76;nan
36932;BME280;22847;42.654;23.370;2023-07-13T02:46:08;94901.38;;;23.39;nan
36932;BME280;22847;42.654;23.370;2023-07-13T02:48:34;94898.47;;;23.47;nan
36932;BME280;22847;42.654;23.370;2023-07-13T02:51:00;94775.81;;;22.81;nan
36932;BME280;22847;42.654;23.370;2023-07-13T02:53:25;94896.88;;;23.65;nan
36932;BME280;22847;42.654;23.370;2023-07-13T03:07:32;94876.53;;;23.70;54.03
36932;BME280;22847;42.654;23.370;2023-07-13T03:09:58;94852.44;;;23.40;54.41
36932;BME280;22847;42.654;23.370;2023-07-13T03:12:24;94880.63;;;23.23;55.26
36932;BME280;22847;42.654;23.370;2023-07-13T03:14:50;94910.00;;;23.35;55.33
36932;BME280;22847;42.654;23.370;2023-07-13T03:17:15;94882.94;;;23.44;54.86
36932;BME280;22847;42.654;23.370;2023-07-13T03:19:41;94916.97;;;23.85;54.51
36932;BME280;22847;42.654;23.370;2023-07-13T03:22:06;94936.44;;;24.04;54.10
36932;BME280;22847;42.654;23.370;2023-07-13T03:24:35;94820.25;;;23.48;53.75
36932;BME280;22847;42.654;23.370;2023-07-13T03:27:02;94905.50;;;24.03;53.79
36932;BME280;22847;42.654;23.370;2023-07-13T03:29:27;94903.88;;;24.02;54.01
36932;BME280;22847;42.654;23.370;2023-07-13T03:31:53;94847.03;;;23.72;53.90
36932;BME280;22847;42.654;23.370;2023-07-13T03:34:18;94925.41;;;24.00;54.24
36932;BME280;22847;42.654;23.370;2023-07-13T03:36:43;94927.13;;;24.13;54.49
36932;BME280;22847;42.654;23.370;2023-07-13T03:39:09;94879.88;;;23.84;54.55
36932;BME280;22847;42.654;23.370;2023-07-13T03:41:34;94927.13;;;24.13;55.02
36932;BME280;22847;42.654;23.370;2023-07-13T03:44:00;94928.38;;;24.11;55.03
36932;BME280;22847;42.654;23.370;2023-07-13T03:46:25;94810.88;;;23.39;55.37
36932;BME280;22847;42.654;23.370;2023-07-13T03:48:51;94922.78;;;24.19;55.28
36932;BME280;22847;42.654;23.370;2023-07-13T03:51:17;94901.50;;;24.12;55.74
36932;BME280;22847;42.654;23.370;2023-07-13T03:53:44;94920.72;;;24.21;55.89
36932;BME280;22847;42.654;23.370;2023-07-13T03:56:10;94795.69;;;23.46;55.04
36932;BME280;22847;42.654;23.370;2023-07-13T03:58:38;94874.41;;;23.97;55.43
36932;BME280;22847;42.654;23.370;2023-07-13T04:01:06;94927.16;;;24.31;55.21
36932;BME280;22847;42.654;23.370;2023-07-13T04:03:33;94920.56;;;24.34;55.02
36932;BME280;22847;42.654;23.370;2023-07-13T04:06:00;94939.16;;;24.40;54.50
36932;BME280;22847;42.654;23.370;2023-07-13T04:08:31;94926.09;;;24.51;54.62
36932;BME280;22847;42.654;23.370;2023-07-13T04:10:56;94898.75;;;24.55;54.18
36932;BME280;22847;42.654;23.370;2023-07-13T04:13:22;94770.81;;;24.25;53.15
36932;BME280;22847;42.654;23.370;2023-07-13T04:15:48;94907.28;;;25.35;52.14
36932;BME280;22847;42.654;23.370;2023-07-13T04:18:14;94847.25;;;25.14;51.42
36932;BME280;22847;42.654;23.370;2023-07-13T04:20:39;94914.91;;;25.96;51.67
36932;BME280;22847;42.654;23.370;2023-07-13T04:23:05;94852.50;;;25.67;51.30
36932;BME280;22847;42.654;23.370;2023-07-13T04:25:30;94888.16;;;25.96;50.83
36932;BME280;22847;42.654;23.370;2023-07-13T04:27:56;94937.56;;;26.29;50.49
36932;BME280;22847;42.654;23.370;2023-07-13T04:30:21;94929.72;;;26.50;51.08
36932;BME280;22847;42.654;23.370;2023-07-13T04:32:47;94931.50;;;27.13;57.31
36932;BME280;22847;42.654;23.370;2023-07-13T04:35:12;94839.31;;;27.26;51.75
36932;BME280;22847;42.654;23.370;2023-07-13T04:37:39;94937.03;;;28.40;48.69
36932;BME280;22847;42.654;23.370;2023-07-13T04:40:05;94944.22;;;28.78;47.67
36932;BME280;22847;42.654;23.370;2023-07-13T04:42:31;94857.50;;;28.56;45.97
36932;BME280;22847;42.654;23.370;2023-07-13T04:44:56;94928.19;;;29.32;45.29
36932;BME280;22847;42.654;23.370;2023-07-13T04:47:22;94922.09;;;29.41;44.14
36932;BME280;22847;42.654;23.370;2023-07-13T04:49:47;94872.84;;;29.31;43.86
36932;BME280;22847;42.654;23.370;2023-07-13T04:52:13;94930.00;;;29.85;43.42
36932;BME280;22847;42.654;23.370;2023-07-13T04:54:38;94922.00;;;29.90;43.46
36932;BME280;22847;42.654;23.370;2023-07-13T04:57:05;94856.13;;;29.60;43.14
36932;BME280;22847;42.654;23.370;2023-07-13T04:59:33;94950.16;;;30.19;42.18
36932;BME280;22847;42.654;23.370;2023-07-13T05:01:59;94954.47;;;30.20;42.77
36932;BME280;22847;42.654;23.370;2023-07-13T05:04:24;94957.25;;;30.40;41.31
36932;BME280;22847;42.654;23.370;2023-07-13T05:06:50;94883.91;;;30.08;41.39
36932;BME280;22847;42.654;23.370;2023-07-13T05:09:16;94940.41;;;30.50;41.41
36932;BME280;22847;42.654;23.370;2023-07-13T05:11:42;94950.47;;;30.75;41.32
36932;BME280;22847;42.654;23.370;2023-07-13T05:14:08;94950.47;;;30.75;40.88
36932;BME280;22847;42.654;23.370;2023-07-13T05:16:35;94954.53;;;30.77;40.88
36932;BME280;22847;42.654;23.370;2023-07-13T05:19:00;94966.19;;;30.98;40.86
36932;BME280;22847;42.654;23.370;2023-07-13T05:21:25;94905.72;;;30.64;40.71
36932;BME280;22847;42.654;23.370;2023-07-13T05:23:51;94885.00;;;30.64;40.52
36932;BME280;22847;42.654;23.370;2023-07-13T05:26:16;94897.44;;;30.75;39.65
36932;BME280;22847;42.654;23.370;2023-07-13T05:28:42;94962.00;;;31.27;39.77
36932;BME280;22847;42.654;23.370;2023-07-13T05:31:09;94963.66;;;31.38;39.88
36932;BME280;22847;42.654;23.370;2023-07-13T05:33:34;94969.56;;;31.35;39.52
36932;BME280;22847;42.654;23.370;2023-07-13T05:36:00;94951.25;;;31.48;39.30
36932;BME280;22847;42.654;23.370;2023-07-13T05:38:26;94868.72;;;31.06;39.07
36932;BME280;22847;42.654;23.370;2023-07-13T05:40:54;94968.53;;;31.62;38.13
36932;BME280;22847;42.654;23.370;2023-07-13T05:43:20;94953.97;;;31.58;37.79
36932;BME280;22847;42.654;23.370;2023-07-13T05:45:45;94867.06;;;31.00;38.34
36932;BME280;22847;42.654;23.370;2023-07-13T05:48:11;94959.06;;;31.49;38.09
36932;BME280;22847;42.654;23.370;2023-07-13T05:50:36;94894.09;;;31.20;38.22
36932;BME280;22847;42.654;23.370;2023-07-13T05:53:02;94943.47;;;31.66;38.31
36932;BME280;22847;42.654;23.370;2023-07-13T05:55:27;94976.09;;;31.65;38.45
36932;BME280;22847;42.654;23.370;2023-07-13T05:57:53;94880.09;;;31.33;38.25
36932;BME280;22847;42.654;23.370;2023-07-13T06:00:18;94969.09;;;31.84;39.01
36932;BME280;22847;42.654;23.370;2023-07-13T06:02:44;94969.63;;;32.06;38.83
36932;BME280;22847;42.654;23.370;2023-07-13T06:05:09;94958.34;;;32.19;38.00
36932;BME280;22847;42.654;23.370;2023-07-13T06:07:35;94971.00;;;31.68;38.45
36932;BME280;22847;42.654;23.370;2023-07-13T06:10:00;94894.19;;;30.16;40.64
36932;BME280;22847;42.654;23.370;2023-07-13T06:12:26;94891.81;;;30.25;40.48
36932;BME280;22847;42.654;23.370;2023-07-13T06:14:52;94958.91;;;30.98;40.52
36932;BME280;22847;42.654;23.370;2023-07-13T06:17:17;94946.66;;;31.38;39.13
36932;BME280;22847;42.654;23.370;2023-07-13T06:19:43;94919.44;;;31.55;39.41
36932;BME280;22847;42.654;23.370;2023-07-13T06:22:08;94879.25;;;31.48;38.25
36932;BME280;22847;42.654;23.370;2023-07-13T06:24:34;94960.75;;;31.91;38.56
36932;BME280;22847;42.654;23.370;2023-07-13T06:26:59;94947.81;;;31.93;38.59
36932;BME280;22847;42.654;23.370;2023-07-13T06:29:24;94969.13;;;32.09;38.81
36932;BME280;22847;42.654;23.370;2023-07-13T06:31:50;94967.47;;;31.98;39.92
36932;BME280;22847;42.654;23.370;2023-07-13T06:34:15;94962.38;;;32.12;38.60
36932;BME280;22847;42.654;23.370;2023-07-13T06:36:41;94860.69;;;31.62;38.74
36932;BME280;22847;42.654;23.370;2023-07-13T06:39:07;94882.75;;;31.94;37.91
36932;BME280;22847;42.654;23.370;2023-07-13T06:41:32;94871.19;;;31.78;38.23
36932;BME280;22847;42.654;23.370;2023-07-13T06:43:58;94963.69;;;32.29;38.34
36932;BME280;22847;42.654;23.370;2023-07-13T06:46:24;94955.88;;;32.28;38.13
36932;BME280;22847;42.654;23.370;2023-07-13T06:48:50;94934.22;;;32.48;36.58
36932;BME280;22847;42.654;23.370;2023-07-13T06:51:15;94954.19;;;32.72;37.50
36932;BME280;22847;42.654;23.370;2023-07-13T06:53:41;94948.22;;;32.60;38.15
36932;BME280;22847;42.654;23.370;2023-07-13T06:56:09;94955.22;;;32.82;38.01
36932;BME280;22847;42.654;23.370;2023-07-13T06:58:34;94946.41;;;33.10;38.16
36932;BME280;22847;42.654;23.370;2023-07-13T07:01:00;94892.63;;;32.64;38.12
36932;BME280;22847;42.654;23.370;2023-07-13T07:03:25;94953.38;;;33.31;37.38
36932;BME280;22847;42.654;23.370;2023-07-13T07:05:51;94946.84;;;33.37;37.01
36932;BME280;22847;42.654;23.370;2023-07-13T07:08:16;94972.25;;;33.41;37.56
36932;BME280;22847;42.654;23.370;2023-07-13T07:10:41;94953.09;;;33.33;38.09
36932;BME280;22847;42.654;23.370;2023-07-13T07:13:07;94889.00;;;32.84;37.14
36932;BME280;22847;42.654;23.370;2023-07-13T07:15:34;94957.31;;;33.49;36.49
36932;BME280;22847;42.654;23.370;2023-07-13T07:17:59;94941.47;;;32.78;37.77
36932;BME280;22847;42.654;23.370;2023-07-13T07:20:25;94958.44;;;33.43;36.76
36932;BME280;22847;42.654;23.370;2023-07-13T07:22:51;94804.44;;;32.29;37.44
36932;BME280;22847;42.654;23.370;2023-07-13T07:25:17;94879.69;;;33.05;37.14
36932;BME280;22847;42.654;23.370;2023-07-13T07:27:42;94945.72;;;32.89;36.68
36932;BME280;22847;42.654;23.370;2023-07-13T07:30:08;94859.34;;;32.74;36.14
36932;BME280;22847;42.654;23.370;2023-07-13T07:32:34;94951.72;;;33.40;36.20
36932;BME280;22847;42.654;23.370;2023-07-13T07:34:59;94952.59;;;33.64;35.83
36932;BME280;22847;42.654;23.370;2023-07-13T07:37:25;94873.97;;;33.56;34.86
36932;BME280;22847;42.654;23.370;2023-07-13T07:39:50;94917.44;;;33.64;35.04
36932;BME280;22847;42.654;23.370;2023-07-13T07:42:16;94864.16;;;32.87;35.20
36932;BME280;22847;42.654;23.370;2023-07-13T07:44:42;94919.16;;;33.06;36.55
36932;BME280;22847;42.654;23.370;2023-07-13T07:47:08;94940.16;;;33.25;37.20
36932;BME280;22847;42.654;23.370;2023-07-13T07:49:35;94924.38;;;33.42;36.51
36932;BME280;22847;42.654;23.370;2023-07-13T07:52:00;94933.16;;;33.68;35.05
36932;BME280;22847;42.654;23.370;2023-07-13T07:54:25;94934.84;;;31.95;38.30
36932;BME280;22847;42.654;23.370;2023-07-13T07:56:51;94921.53;;;32.64;37.10
36932;BME280;22847;42.654;23.370;2023-07-13T07:59:16;94833.91;;;32.80;36.65
36932;BME280;22847;42.654;23.370;2023-07-13T08:01:42;94915.53;;;33.70;36.64
36932;BME280;22847;42.654;23.370;2023-07-13T08:04:08;94914.16;;;33.34;35.25
36932;BME280;22847;42.654;23.370;2023-07-13T08:06:34;94842.03;;;32.80;34.58
36932;BME280;22847;42.654;23.370;2023-07-13T08:09:00;94907.53;;;32.47;36.10
36932;BME280;22847;42.654;23.370;2023-07-13T08:11:26;94918.00;;;32.63;36.44
36932;BME280;22847;42.654;23.370;2023-07-13T08:13:52;94912.63;;;32.43;36.74
36932;BME280;22847;42.654;23.370;2023-07-13T08:16:17;94826.66;;;31.91;37.83
36932;BME280;22847;42.654;23.370;2023-07-13T08:18:43;94845.44;;;32.42;37.15
36932;BME280;22847;42.654;23.370;2023-07-13T08:21:09;94901.81;;;33.12;36.93
36932;BME280;22847;42.654;23.370;2023-07-13T08:23:35;94901.66;;;33.43;36.81
36932;BME280;22847;42.654;23.370;2023-07-13T08:26:01;94898.41;;;33.80;36.51
36932;BME280;22847;42.654;23.370;2023-07-13T08:28:27;94811.22;;;33.59;34.76
36932;BME280;22847;42.654;23.370;2023-07-13T08:30:53;94884.13;;;33.74;35.32
36932;BME280;22847;42.654;23.370;2023-07-13T08:33:20;94884.25;;;33.59;35.48
36932;BME280;22847;42.654;23.370;2023-07-13T08:35:47;94885.66;;;33.85;35.07
36932;BME280;22847;42.654;23.370;2023-07-13T08:38:13;94877.56;;;34.09;35.71
36932;BME280;22847;42.654;23.370;2023-07-13T08:40:40;94886.59;;;34.28;35.31
36932;BME280;22847;42.654;23.370;2023-07-13T08:43:09;94881.13;;;34.57;35.09
36932;BME280;22847;42.654;23.370;2023-07-13T08:48:47;94883.47;;;34.87;34.64
36932;BME280;22847;42.654;23.370;2023-07-13T08:53:50;94878.44;;;35.00;35.27
36932;BME280;22847;42.654;23.370;2023-07-13T08:56:20;94877.28;;;35.06;34.64
36932;BME280;22847;42.654;23.370;2023-07-13T08:58:49;94879.56;;;34.99;34.26
36932;BME280;22847;42.654;23.370;2023-07-13T09:01:40;94805.66;;;34.03;35.35
36932;BME280;22847;42.654;23.370;2023-07-13T09:04:18;94897.81;;;34.69;35.84
36932;BME280;22847;42.654;23.370;2023-07-13T09:14:53;94859.38;;;34.67;34.30
36932;BME280;22847;42.654;23.370;2023-07-13T09:17:27;94893.13;;;34.75;35.40
36932;BME280;22847;42.654;23.370;2023-07-13T09:20:03;94920.59;;;35.11;34.22
36932;BME280;22847;42.654;23.370;2023-07-13T09:22:32;94834.69;;;34.87;34.95
36932;BME280;22847;42.654;23.370;2023-07-13T09:25:23;94907.44;;;35.42;33.76
36932;BME280;22847;42.654;23.370;2023-07-13T09:27:53;94890.19;;;35.51;33.45
36932;BME280;22847;42.654;23.370;2023-07-13T09:30:43;94899.66;;;35.35;33.32
36932;BME280;22847;42.654;23.370;2023-07-13T09:33:10;94912.50;;;35.48;33.14
36932;BME280;22847;42.654;23.370;2023-07-13T09:35:35;94889.59;;;34.98;34.71
36932;BME280;22847;42.654;23.370;2023-07-13T09:38:14;94904.84;;;35.50;33.12
36932;BME280;22847;42.654;23.370;2023-07-13T09:43:13;94908.97;;;35.29;33.63
36932;BME280;22847;42.654;23.370;2023-07-13T09:45:39;94886.47;;;35.28;33.63
36932;BME280;22847;42.654;23.370;2023-07-13T09:48:10;94907.28;;;34.72;33.89
36932;BME280;22847;42.654;23.370;2023-07-13T09:50:36;94865.75;;;34.95;33.69
36932;BME280;22847;42.654;23.370;2023-07-13T09:53:02;94884.16;;;34.98;35.09
36932;BME280;22847;42.654;23.370;2023-07-13T09:55:32;94878.56;;;35.08;33.87
36932;BME280;22847;42.654;23.370;2023-07-13T09:58:04;94870.25;;;35.42;33.33
36932;BME280;22847;42.654;23.370;2023-07-13T10:00:31;94873.47;;;35.44;32.76
36932;BME280;22847;42.654;23.370;2023-07-13T10:03:05;94799.41;;;34.92;34.13
36932;BME280;22847;42.654;23.370;2023-07-13T10:05:41;94787.69;;;34.78;34.67
36932;BME280;22847;42.654;23.370;2023-07-13T10:08:16;94861.41;;;35.18;34.00
36932;BME280;22847;42.654;23.370;2023-07-13T10:10:44;94836.75;;;35.33;33.99
36932;BME280;22847;42.654;23.370;2023-07-13T10:13:25;94855.13;;;35.55;33.88
36932;BME280;22847;42.654;23.370;2023-07-13T10:15:52;94845.63;;;35.39;33.89
36932;BME280;22847;42.654;23.370;2023-07-13T10:18:18;94756.84;;;34.93;33.87
36932;BME280;22847;42.654;23.370;2023-07-13T10:20:44;94859.06;;;35.62;33.04
36932;BME280;22847;42.654;23.370;2023-07-13T10:23:15;94841.44;;;35.46;34.00
36932;BME280;22847;42.654;23.370;2023-07-13T10:25:46;94835.66;;;35.53;32.40
36932;BME280;22847;42.654;23.370;2023-07-13T10:28:35;94852.09;;;35.24;32.05
36932;BME280;22847;42.654;23.370;2023-07-13T10:31:05;94842.59;;;35.40;31.52
36932;BME280;22847;42.654;23.370;2023-07-13T10:33:35;94771.84;;;35.23;32.35
36932;BME280;22847;42.654;23.370;2023-07-13T10:36:12;94830.97;;;35.72;32.16
36932;BME280;22847;42.654;23.370;2023-07-13T10:38:39;94772.34;;;35.25;31.55
36932;BME280;22847;42.654;23.370;2023-07-13T10:41:10;94791.31;;;35.44;31.00
36932;BME280;22847;42.654;23.370;2023-07-13T10:43:42;94826.69;;;35.85;29.89
36932;BME280;22847;42.654;23.370;2023-07-13T10:46:13;94744.16;;;35.40;31.98
36932;BME280;22847;42.654;23.370;2023-07-13T10:48:41;94815.25;;;35.88;31.70
36932;BME280;22847;42.654;23.370;2023-07-13T10:51:09;94827.47;;;35.71;29.59
36932;BME280;22847;42.654;23.370;2023-07-13T10:53:37;94742.34;;;35.35;29.45
36932;BME280;22847;42.654;23.370;2023-07-13T10:56:05;94727.56;;;35.27;28.99
36932;BME280;22847;42.654;23.370;2023-07-13T10:58:41;94719.59;;;35.17;26.60
36932;BME280;22847;42.654;23.370;2023-07-13T11:03:36;94792.53;;;35.84;28.80
36932;BME280;22847;42.654;23.370;2023-07-13T11:06:07;94801.97;;;36.00;28.00
36932;BME280;22847;42.654;23.370;2023-07-13T11:08:36;94782.63;;;36.20;25.47
36932;BME280;22847;42.654;23.370;2023-07-13T11:11:03;94789.88;;;36.25;26.33
36932;BME280;22847;42.654;23.370;2023-07-13T11:18:45;94777.81;;;35.85;25.86
36932;BME280;22847;42.654;23.370;2023-07-13T11:21:20;94758.94;;;35.79;26.52
36932;BME280;22847;42.654;23.370;2023-07-13T11:23:54;94760.66;;;36.03;25.04
36932;BME280;22847;42.654;23.370;2023-07-13T11:29:32;94755.00;;;35.86;26.75
36932;BME280;22847;42.654;23.370;2023-07-13T11:32:10;94763.34;;;36.03;25.46
36932;BME280;22847;42.654;23.370;2023-07-13T11:34:46;94733.72;;;35.79;26.13
36932;BME280;22847;42.654;23.370;2023-07-13T11:37:15;94773.38;;;35.61;28.66
36932;BME280;22847;42.654;23.370;2023-07-13T11:39:43;94764.47;;;35.42;28.71
36932;BME280;22847;42.654;23.370;2023-07-13T11:42:12;94722.78;;;35.38;29.79
36932;BME280;22847;42.654;23.370;2023-07-13T11:44:52;94751.28;;;35.68;29.69
36932;BME280;22847;42.654;23.370;2023-07-13T11:47:20;94746.69;;;35.50;29.07
36932;BME280;22847;42.654;23.370;2023-07-13T11:49:54;94767.00;;;35.52;28.86
36932;BME280;22847;42.654;23.370;2023-07-13T11:52:34;94659.59;;;34.73;29.84
36932;BME280;22847;42.654;23.370;2023-07-13T11:55:05;94745.31;;;35.52;30.55
36932;BME280;22847;42.654;23.370;2023-07-13T11:57:43;94742.00;;;35.55;29.36
36932;BME280;22847;42.654;23.370;2023-07-13T12:00:13;94726.09;;;35.49;28.84
36932;BME280;22847;42.654;23.370;2023-07-13T12:02:46;94725.84;;;35.31;28.41
36932;BME280;22847;42.654;23.370;2023-07-13T12:05:15;94668.00;;;35.04;26.81
36932;BME280;22847;42.654;23.370;2023-07-13T12:07:43;94742.78;;;35.56;27.60
36932;BME280;22847;42.654;23.370;2023-07-13T12:12:40;94717.25;;;35.43;26.15
36932;BME280;22847;42.654;23.370;2023-07-13T12:15:11;94612.63;;;34.77;28.29
36932;BME280;22847;42.654;23.370;2023-07-13T12:17:37;94725.97;;;35.72;27.34
36932;BME280;22847;42.654;23.370;2023-07-13T12:20:17;94723.34;;;35.67;29.32
36932;BME280;22847;42.654;23.370;2023-07-13T12:22:46;94711.38;;;35.82;27.91
36932;BME280;22847;42.654;23.370;2023-07-13T12:25:12;94690.97;;;35.85;26.34
36932;BME280;22847;42.654;23.370;2023-07-13T12:27:38;94626.94;;;35.29;27.90
36932;BME280;22847;42.654;23.370;2023-07-13T12:33:11;94695.16;;;35.63;27.66
36932;BME280;22847;42.654;23.370;2023-07-13T12:35:46;94686.22;;;35.63;28.12
36932;BME280;22847;42.654;23.370;2023-07-13T12:38:12;94685.75;;;35.74;26.28
36932;BME280;22847;42.654;23.370;2023-07-13T12:40:39;94610.47;;;35.25;26.92
36932;BME280;22847;42.654;23.370;2023-07-13T12:43:11;94685.97;;;35.64;26.58
36932;BME280;22847;42.654;23.370;2023-07-13T12:45:37;94599.28;;;35.27;27.32
36932;BME280;22847;42.654;23.370;2023-07-13T12:48:06;94676.72;;;35.79;28.23
36932;BME280;22847;42.654;23.370;2023-07-13T12:50:43;94682.81;;;35.98;27.62
36932;BME280;22847;42.654;23.370;2023-07-13T12:53:29;94642.16;;;35.71;28.61
36932;BME280;22847;42.654;23.370;2023-07-13T12:55:59;94669.22;;;35.30;28.64
36932;BME280;22847;42.654;23.370;2023-07-13T12:58:40;94675.41;;;34.84;28.96
36932;BME280;22847;42.654;23.370;2023-07-13T13:01:13;94688.56;;;34.91;28.81
36932;BME280;22847;42.654;23.370;2023-07-13T13:03:41;94667.94;;;35.09;28.58
36932;BME280;22847;42.654;23.370;2023-07-13T13:08:41;94670.00;;;35.17;28.40
36932;BME280;22847;42.654;23.370;2023-07-13T13:11:08;94645.47;;;35.22;28.22
36932;BME280;22847;42.654;23.370;2023-07-13T13:13:34;94581.59;;;35.02;27.78
36932;BME280;22847;42.654;23.370;2023-07-13T13:16:19;94658.47;;;35.25;28.29
36932;BME280;22847;42.654;23.370;2023-07-13T13:18:45;94641.69;;;35.50;27.59
36932;BME280;22847;42.654;23.370;2023-07-13T13:21:11;94636.28;;;35.50;27.60
36932;BME280;22847;42.654;23.370;2023-07-13T13:23:37;94638.28;;;35.58;26.94
36932;BME280;22847;42.654;23.370;2023-07-13T13:26:04;94630.34;;;35.34;27.56
36932;BME280;22847;42.654;23.370;2023-07-13T13:28:31;94645.59;;;35.17;27.80
36932;BME280;22847;42.654;23.370;2023-07-13T13:30:57;94644.09;;;35.24;28.22
36932;BME280;22847;42.654;23.370;2023-07-13T13:33:23;94650.13;;;35.35;28.33
36932;BME280;22847;42.654;23.370;2023-07-13T13:35:48;94648.72;;;35.24;28.30
36932;BME280;22847;42.654;23.370;2023-07-13T13:38:15;94627.88;;;35.06;28.19
36932;BME280;22847;42.654;23.370;2023-07-13T13:40:42;94652.56;;;35.50;27.25
36932;BME280;22847;42.654;23.370;2023-07-13T13:43:26;94642.81;;;35.63;27.34
36932;BME280;22847;42.654;23.370;2023-07-13T13:45:54;94638.91;;;35.55;27.23